Time;durP1;ratioP1;P1;durP2;ratioP2;P2;SDS_P1;SDS_P2;PMS_P1;PMS_P2;Temp;Humidity;BMP_temperature;BMP_pressure;BME280_temperature;BME280_humidity;BME280_pressure;Samples;Min_cycle;Max_cycle;Signal;HPM_P1;HPM_P2
2022/08/04 00:00:28;;;;;;;3.40;2.60;;;;;;;-143.84;56.57;45020.50;5112115;28;20434;-71
2022/08/04 00:03:11;;;;;;;2.80;2.63;;;;;;;-143.84;56.31;45022.41;5111690;28;20446;-71
2022/08/04 00:05:52;;;;;;;2.93;2.73;;;;;;;-143.84;56.64;45031.94;5111726;28;20450;-71
2022/08/04 00:08:34;;;;;;;3.13;2.93;;;;;;;-143.84;56.29;45022.41;5111943;28;20439;-71
2022/08/04 00:11:02;;;;;;;4.03;2.80;;;;;;;-143.84;55.99;45016.69;5111728;28;20538;-70
2022/08/04 00:13:32;;;;;;;2.90;2.57;;;;;;;-143.84;56.08;44990.03;5112219;28;20446;-71
2022/08/04 00:16:04;;;;;;;2.90;2.70;;;;;;;-143.84;56.75;45009.09;5111419;28;20431;-71
2022/08/04 00:18:37;;;;;;;5.23;2.77;;;;;;;-143.84;56.59;45005.28;5111333;28;20483;-71
2022/08/04 00:21:06;;;;;;;3.00;2.80;;;;;;;-143.84;56.63;44997.66;5110498;28;20508;-71
2022/08/04 00:23:35;;;;;;;3.03;2.83;;;;;;;-143.84;56.79;45012.88;5110780;28;20441;-71
2022/08/04 00:26:03;;;;;;;2.93;2.73;;;;;;;-143.84;56.63;44997.66;5110802;28;20435;-71
2022/08/04 00:28:30;;;;;;;4.33;2.90;;;;;;;-143.84;57.05;45030.03;5111440;28;20495;-71
2022/08/04 00:30:57;;;;;;;3.57;2.67;;;;;;;-143.84;57.05;45001.47;5111494;28;20443;-71
2022/08/04 00:33:26;;;;;;;3.40;3.00;;;;;;;-143.84;56.99;45018.59;5111057;28;20443;-71
2022/08/04 00:35:56;;;;;;;3.13;2.73;;;;;;;-143.84;57.34;45010.97;5111397;28;20434;-71
2022/08/04 00:38:24;;;;;;;5.10;2.90;;;;;;;-143.84;57.27;45018.59;5110870;28;20474;-71
2022/08/04 00:41:09;;;;;;;10.40;3.20;;;;;;;-143.84;57.27;44999.56;5111246;28;20488;-71
2022/08/04 00:43:45;;;;;;;4.03;3.57;;;;;;;-143.84;57.50;44988.13;5111341;28;20443;-71
2022/08/04 00:46:39;;;;;;;6.70;3.20;;;;;;;-143.84;57.43;45026.22;5110320;28;20462;-71
2022/08/04 00:49:33;;;;;;;3.43;3.13;;;;;;;-143.84;57.66;44984.31;5102008;28;20866;-71
2022/08/04 00:52:18;;;;;;;3.30;3.00;;;;;;;-143.84;57.69;45009.09;5110853;28;20477;-71
2022/08/04 00:55:14;;;;;;;3.77;3.43;;;;;;;-143.84;57.76;44991.94;5110738;28;20439;-71
2022/08/04 00:57:57;;;;;;;3.97;3.13;;;;;;;-143.84;58.02;45020.50;5110520;28;20482;-71
2022/08/04 01:00:24;;;;;;;3.63;3.20;;;;;;;-143.84;58.00;44995.75;5110853;28;20427;-71
2022/08/04 01:03:07;;;;;;;4.90;3.33;;;;;;;-143.84;58.24;45009.09;5110631;28;20451;-71
2022/08/04 01:05:49;;;;;;;3.87;3.47;;;;;;;-143.84;58.13;45001.47;5110656;28;20528;-71
2022/08/04 01:08:41;;;;;;;3.77;3.23;;;;;;;-143.84;57.93;44988.13;5110555;28;20449;-71
2022/08/04 01:11:25;;;;;;;4.53;3.50;;;;;;;-143.84;57.87;44988.13;5110368;28;20508;-71
2022/08/04 01:14:23;;;;;;;5.40;3.17;;;;;;;-143.84;57.83;44999.56;5110597;28;20520;-71
2022/08/04 01:16:57;;;;;;;10.97;4.13;;;;;;;-143.84;58.25;45014.78;5110683;28;20439;-71
2022/08/04 01:19:53;;;;;;;6.37;3.40;;;;;;;-143.84;58.20;44991.94;5110162;28;21246;-71
2022/08/04 01:22:47;;;;;;;3.37;3.00;;;;;;;-143.84;58.08;45010.97;5110108;28;20520;-71
2022/08/04 01:25:51;;;;;;;4.73;3.30;;;;;;;-143.84;57.99;45003.38;5110382;28;20475;-71
2022/08/04 01:28:36;;;;;;;6.00;4.10;;;;;;;-143.84;58.48;45016.69;5110093;28;20443;-70
2022/08/04 01:31:16;;;;;;;4.00;3.40;;;;;;;-143.84;58.50;45024.31;5110100;28;20468;-71
2022/08/04 01:33:48;;;;;;;8.00;2.90;;;;;;;-143.84;58.57;45005.28;5109975;28;20455;-71
2022/08/04 01:36:15;;;;;;;4.73;2.90;;;;;;;-143.84;58.80;45010.97;5110160;28;20428;-71
2022/08/04 01:38:43;;;;;;;3.23;3.03;;;;;;;-143.84;58.60;44991.94;5110033;28;21014;-71
2022/08/04 01:41:14;;;;;;;3.87;3.57;;;;;;;-143.84;58.71;45016.69;5109907;28;20435;-71
2022/08/04 01:43:44;;;;;;;4.90;3.60;;;;;;;-143.84;58.59;45024.31;5109874;28;20496;-71
2022/08/04 01:46:14;;;;;;;3.40;2.97;;;;;;;-143.84;59.01;44999.56;5109637;28;20430;-71
2022/08/04 01:48:45;;;;;;;11.23;3.20;;;;;;;-143.84;58.47;45001.47;5109820;28;20435;-71
2022/08/04 01:51:12;;;;;;;10.30;3.70;;;;;;;-143.84;58.61;44999.56;5109600;28;20442;-71
2022/08/04 01:53:41;;;;;;;4.80;3.23;;;;;;;-143.84;58.29;44986.22;5109634;28;20443;-71
2022/08/04 01:56:10;;;;;;;3.73;3.47;;;;;;;-143.84;58.47;45031.94;5109796;28;20496;-71
2022/08/04 01:58:39;;;;;;;6.13;2.83;;;;;;;-143.84;58.31;44982.41;5108412;28;20494;-71
2022/08/04 02:01:08;;;;;;;3.10;2.93;;;;;;;-143.84;58.10;45014.78;5109778;28;20853;-71
2022/08/04 02:03:40;;;;;;;3.30;3.10;;;;;;;-143.84;58.39;45026.22;5109865;28;20883;-71
2022/08/04 02:06:18;;;;;;;17.50;3.10;;;;;;;-143.84;58.08;44997.66;5109756;28;20447;-71
2022/08/04 02:08:58;;;;;;;3.57;3.37;;;;;;;-143.84;58.04;45016.69;5109595;28;20928;-71
2022/08/04 02:11:25;;;;;;;4.00;3.23;;;;;;;-143.84;58.21;45022.41;5108906;28;21061;-71
2022/08/04 02:14:06;;;;;;;7.43;2.80;;;;;;;-143.84;58.34;45041.44;5109464;28;20431;-70
2022/08/04 02:16:44;;;;;;;4.40;3.87;;;;;;;-143.84;58.54;45024.31;5109411;28;20435;-70
2022/08/04 02:19:27;;;;;;;3.33;3.13;;;;;;;-143.84;58.92;44991.94;5109374;28;20470;-70
2022/08/04 02:22:03;;;;;;;3.27;3.07;;;;;;;-143.84;58.93;44984.31;5109743;28;20462;-70
2022/08/04 02:24:32;;;;;;;5.03;3.27;;;;;;;-143.84;59.24;45014.78;5109766;28;20414;-71
2022/08/04 02:27:03;;;;;;;4.23;3.63;;;;;;;-143.84;59.33;45010.97;5109329;28;20496;-71
2022/08/04 02:29:36;;;;;;;3.20;3.00;;;;;;;-143.84;59.33;45026.22;5109254;28;20492;-71
2022/08/04 02:32:06;;;;;;;5.33;4.03;;;;;;;-143.84;59.27;45024.31;5108620;28;20874;-72
2022/08/04 02:34:42;;;;;;;5.00;3.03;;;;;;;-143.84;59.70;45016.69;5109241;28;20457;-71
2022/08/04 02:37:10;;;;;;;3.40;3.10;;;;;;;-143.84;59.95;45022.41;5109499;28;20435;-71
2022/08/04 02:39:37;;;;;;;4.97;3.20;;;;;;;-143.84;60.46;45026.22;5108399;28;21074;-71
2022/08/04 02:42:06;;;;;;;7.90;3.90;;;;;;;-143.84;60.66;45031.94;5108631;28;20822;-71
2022/08/04 02:44:35;;;;;;;5.00;3.63;;;;;;;-143.84;60.75;45016.69;5108625;28;20487;-70
2022/08/04 02:47:04;;;;;;;4.30;3.80;;;;;;;-143.84;60.65;45024.31;5109200;28;20435;-71
2022/08/04 02:49:37;;;;;;;3.50;3.10;;;;;;;-143.84;61.20;45010.97;5108778;28;20451;-72
2022/08/04 02:52:11;;;;;;;5.07;3.57;;;;;;;-143.84;61.35;45026.22;5109034;28;20567;-72
2022/08/04 02:54:41;;;;;;;9.67;3.60;;;;;;;-143.84;61.21;45010.97;5108845;28;20892;-71
2022/08/04 02:57:11;;;;;;;3.10;2.90;;;;;;;-143.84;61.58;45016.69;5108551;28;20482;-71
2022/08/04 02:59:54;;;;;;;5.93;3.07;;;;;;;-143.84;61.77;45007.19;5109114;28;20475;-71
2022/08/04 03:02:33;;;;;;;5.00;3.57;;;;;;;-143.84;61.47;45035.75;5094045;28;20849;-70
2022/08/04 03:05:11;;;;;;;7.63;3.10;;;;;;;-143.84;61.54;45030.03;5087989;28;20865;-71
2022/08/04 03:08:38;;;;;;;4.67;4.27;;;;;;;-143.84;61.63;45028.13;5069883;28;20523;-71
2022/08/04 03:11:57;;;;;;;4.77;3.23;;;;;;;-143.84;61.97;45020.50;5009771;28;20435;-70
2022/08/04 03:15:04;;;;;;;4.50;3.70;;;;;;;-143.84;61.83;45031.94;5050314;28;21028;-70
2022/08/04 03:18:32;;;;;;;4.60;3.43;;;;;;;-143.84;61.67;45003.38;5075286;28;20439;-71
2022/08/04 03:21:26;;;;;;;3.43;3.10;;;;;;;-143.84;61.37;45012.88;5091316;28;21031;-71
2022/08/04 03:24:32;;;;;;;4.00;3.10;;;;;;;-143.84;61.54;45028.13;5091474;28;20513;-70
2022/08/04 03:27:15;;;;;;;5.97;3.27;;;;;;;-143.84;61.57;45030.03;5091526;28;20497;-70
2022/08/04 03:30:07;;;;;;;3.47;3.17;;;;;;;-143.84;61.29;45033.84;5091778;28;20439;-71
2022/08/04 03:33:08;;;;;;;3.70;3.40;;;;;;;-143.84;61.83;45039.53;5091745;28;20448;-71
2022/08/04 03:36:04;;;;;;;5.17;3.83;;;;;;;-143.84;62.06;45026.22;5091534;28;20542;-70
2022/08/04 03:39:02;;;;;;;4.40;2.97;;;;;;;-143.84;61.69;45052.88;5091544;28;20483;-71
2022/08/04 03:41:52;;;;;;;4.40;2.97;;;;;;;-143.84;61.43;45026.22;5091841;28;20471;-70
2022/08/04 03:44:54;;;;;;;14.23;3.07;;;;;;;-143.84;60.40;45024.31;5091679;28;20964;-70
2022/08/04 03:47:54;;;;;;;9.10;3.17;;;;;;;-143.84;57.39;45014.78;5091712;28;20436;-71
2022/08/04 03:53:07;;;;;;;3.60;3.30;;;;;;;-143.84;55.24;45020.50;5064177;28;20446;-71
2022/08/04 03:53:47;;;;;;;3.60;3.40;;;;;;;-143.84;52.46;45009.09;5091374;28;20486;-71
2022/08/04 03:56:35;;;;;;;11.93;3.37;;;;;;;-143.84;50.88;44995.75;5091530;28;20444;-71
2022/08/04 03:59:43;;;;;;;3.87;2.70;;;;;;;-143.84;48.16;44961.47;5091102;28;20905;-71
2022/08/04 04:02:48;;;;;;;12.67;3.87;;;;;;;-143.84;46.10;44963.38;5086270;28;20455;-71
2022/08/04 04:05:56;;;;;;;3.33;3.13;;;;;;;-143.84;45.05;44953.88;5062204;28;20428;-71
2022/08/04 04:09:02;;;;;;;3.73;3.53;;;;;;;-143.84;43.49;44944.34;5091599;28;20481;-71
2022/08/04 04:11:51;;;;;;;5.90;3.03;;;;;;;-143.84;42.51;44951.97;5091095;28;20440;-71
2022/08/04 04:14:39;;;;;;;5.00;3.00;;;;;;;-143.84;41.98;44946.25;5093195;28;20571;-71
2022/08/04 04:17:21;;;;;;;13.43;3.80;;;;;;;-143.84;41.78;44927.19;5111636;28;21324;-71
2022/08/04 04:20:20;;;;;;;4.73;3.17;;;;;;;-143.84;41.60;44915.78;5111339;28;20607;-71
2022/08/04 04:23:19;;;;;;;5.47;3.20;;;;;;;-143.84;41.52;44948.16;5111445;28;20435;-71
2022/08/04 04:26:06;;;;;;;4.80;3.23;;;;;;;-143.84;41.56;44944.34;5111303;28;20833;-71
2022/08/04 04:28:52;;;;;;;7.97;3.53;;;;;;;-143.84;41.52;44915.78;5111105;28;20450;-71
2022/08/04 04:31:38;;;;;;;6.60;3.00;;;;;;;-143.84;41.20;44917.69;5111024;28;20450;-71
2022/08/04 04:34:16;;;;;;;3.23;3.03;;;;;;;-143.84;41.14;44927.19;5111202;28;20435;-71
2022/08/04 04:36:52;;;;;;;5.50;3.20;;;;;;;-143.84;41.10;44925.31;5110989;28;20468;-71
2022/08/04 04:39:28;;;;;;;3.20;2.90;;;;;;;-143.84;40.83;44936.72;5111108;28;20987;-71
2022/08/04 04:42:09;;;;;;;7.23;3.17;;;;;;;-143.84;41.16;44942.44;5110893;28;20439;-71
2022/08/04 04:45:09;;;;;;;4.07;2.70;;;;;;;-143.84;40.85;44921.50;5110695;28;20439;-72
2022/08/04 04:47:50;;;;;;;6.17;3.10;;;;;;;-143.84;40.86;44931.00;5098578;28;20443;-71
2022/08/04 04:50:29;;;;;;;10.67;3.00;;;;;;;-143.84;40.84;44923.41;5110621;28;20443;-71
2022/08/04 04:53:02;;;;;;;4.60;2.93;;;;;;;-143.84;40.99;44938.63;5110893;28;20434;-71
2022/08/04 04:55:40;;;;;;;5.33;2.90;;;;;;;-143.84;40.87;44921.50;5110828;28;20895;-71
2022/08/04 04:58:14;;;;;;;3.33;3.03;;;;;;;-143.84;41.10;44925.31;5110238;28;20486;-71
2022/08/04 05:00:58;;;;;;;11.73;3.20;;;;;;;-143.84;41.19;44953.88;5108515;28;21022;-72
2022/08/04 05:03:42;;;;;;;4.37;2.80;;;;;;;-143.84;40.78;44915.78;5089651;28;20447;-72
2022/08/04 05:06:22;;;;;;;4.70;3.23;;;;;;;-143.84;40.54;44906.25;5089751;28;20428;-72
2022/08/04 05:09:06;;;;;;;7.80;3.40;;;;;;;-143.84;40.44;44919.59;5090067;28;20442;-72
2022/08/04 05:12:13;;;;;;;7.60;3.97;;;;;;;-143.84;40.32;44931.00;5090063;28;20434;-71
2022/08/04 05:14:44;;;;;;;3.23;2.53;;;;;;;-143.84;40.21;44923.41;5083219;28;20459;-71
2022/08/04 05:17:21;;;;;;;4.93;2.90;;;;;;;-143.84;39.74;44913.88;5089874;28;20491;-71
2022/08/04 05:20:00;;;;;;;61.20;42.17;;;;;;;-143.84;39.00;44917.69;5090177;28;20479;-74
2022/08/04 05:22:32;;;;;;;27.80;21.43;;;;;;;-143.84;39.38;44921.50;5090136;28;21043;-74
2022/08/04 05:25:06;;;;;;;3.60;3.30;;;;;;;-143.84;39.15;44931.00;5089967;28;20505;-71
2022/08/04 05:27:39;;;;;;;3.63;2.83;;;;;;;-143.84;38.78;44913.88;5089768;28;20450;-71
2022/08/04 05:30:09;;;;;;;8.47;2.90;;;;;;;-143.84;38.33;44881.50;5089863;28;20448;-71
2022/08/04 05:32:48;;;;;;;3.70;2.80;;;;;;;-143.84;38.30;44908.16;5089625;28;20444;-71
2022/08/04 05:35:22;;;;;;;5.27;2.63;;;;;;;-143.84;37.87;44910.06;5089563;28;20448;-72
2022/08/04 05:37:52;;;;;;;10.60;3.27;;;;;;;-143.84;38.79;44870.09;5089714;28;20547;-72
2022/08/04 05:40:20;;;;;;;5.20;2.77;;;;;;;-143.84;38.33;44904.34;5089648;28;20984;-71
2022/08/04 05:42:48;;;;;;;7.83;2.97;;;;;;;-143.84;37.99;44908.16;5089335;28;20814;-76
2022/08/04 05:45:17;;;;;;;11.70;9.10;;;;;;;-143.84;37.69;44887.22;5089618;28;20489;-74
2022/08/04 05:47:46;;;;;;;3.10;2.90;;;;;;;-143.84;37.70;44875.78;5089669;28;20512;-70
2022/08/04 05:50:14;;;;;;;12.23;3.00;;;;;;;-143.84;37.20;44868.19;5089237;28;20493;-70
2022/08/04 05:52:43;;;;;;;4.33;2.87;;;;;;;-143.84;36.98;44879.59;5089548;28;20493;-70
2022/08/04 05:55:12;;;;;;;2.70;2.50;;;;;;;-143.84;36.99;44896.75;5088799;28;20439;-69
2022/08/04 05:57:41;;;;;;;4.20;2.90;;;;;;;-143.84;37.40;44881.50;5088344;28;21067;-69
2022/08/04 06:00:10;;;;;;;3.17;2.87;;;;;;;-143.84;36.87;44847.22;5088909;28;20480;-69
2022/08/04 06:02:38;;;;;;;9.43;2.80;;;;;;;-143.84;36.68;44877.69;5088993;28;20440;-70
2022/08/04 06:05:13;;;;;;;8.20;2.73;;;;;;;-143.84;36.81;44877.69;5089203;28;20444;-70
2022/08/04 06:07:40;;;;;;;5.37;2.67;;;;;;;-143.84;36.45;44879.59;5089440;28;20507;-70
2022/08/04 06:10:08;;;;;;;9.80;2.50;;;;;;;-143.84;36.48;44858.66;5089276;28;20485;-70
2022/08/04 06:12:40;;;;;;;5.27;2.50;;;;;;;-143.84;36.51;44864.38;5089005;28;20455;-70
2022/08/04 06:15:12;;;;;;;6.03;3.07;;;;;;;-143.84;36.26;44879.59;5089403;28;20443;-70
2022/08/04 06:17:46;;;;;;;3.30;2.77;;;;;;;-143.84;36.53;44851.03;5089228;28;20844;-69
2022/08/04 06:20:16;;;;;;;7.33;2.53;;;;;;;-143.84;36.34;44870.09;5088977;28;20972;-69
2022/08/04 06:22:46;;;;;;;5.57;3.10;;;;;;;-143.84;36.07;44849.13;5088975;28;20451;-70
2022/08/04 06:25:17;;;;;;;3.10;2.90;;;;;;;-143.84;36.10;44843.44;5088880;28;20439;-69
2022/08/04 06:27:45;;;;;;;10.77;6.73;;;;;;;-143.84;36.50;44835.81;5088590;28;20890;-74
2022/08/04 06:30:14;;;;;;;7.70;4.40;;;;;;;-143.84;35.54;44822.47;5088396;28;20452;-75
2022/08/04 06:32:48;;;;;;;14.03;2.83;;;;;;;-143.84;35.85;44799.63;5088816;28;20979;-73
2022/08/04 06:35:18;;;;;;;3.40;2.57;;;;;;;-143.84;35.57;44824.38;5089006;28;20869;-73
2022/08/04 06:37:47;;;;;;;3.53;2.93;;;;;;;-143.84;35.14;44797.72;5089244;28;20505;-74
2022/08/04 06:40:17;;;;;;;2.80;2.60;;;;;;;-143.84;35.05;44788.22;5089159;28;20479;-74
2022/08/04 06:42:45;;;;;;;3.37;2.80;;;;;;;-143.84;34.63;44826.28;5088807;28;20443;-74
2022/08/04 06:45:14;;;;;;;2.80;2.63;;;;;;;-143.84;34.85;44797.72;5092381;28;20513;-74
2022/08/04 06:47:43;;;;;;;4.50;3.53;;;;;;;-143.84;34.57;44793.91;5093068;28;20443;-74
2022/08/04 06:50:11;;;;;;;2.97;2.60;;;;;;;-143.84;34.42;44809.16;5093478;28;20432;-74
2022/08/04 06:52:40;;;;;;;5.73;3.30;;;;;;;-143.84;34.36;44790.13;5092840;28;20428;-74
2022/08/04 06:55:08;;;;;;;4.90;3.30;;;;;;;-143.84;34.65;44801.53;5093182;28;20452;-76
2022/08/04 06:57:37;;;;;;;3.23;2.90;;;;;;;-143.84;34.25;44774.88;5092622;28;21012;-76
2022/08/04 07:00:08;;;;;;;3.30;2.50;;;;;;;-143.84;33.43;44807.25;5092964;28;20475;-77
2022/08/04 07:02:41;;;;;;;7.23;6.00;;;;;;;-143.84;34.20;44830.09;5111061;28;20451;-78
2022/08/04 07:05:09;;;;;;;51.77;39.80;;;;;;;-143.84;34.32;44793.91;5114545;28;20447;-78
2022/08/04 07:07:36;;;;;;;8.73;7.57;;;;;;;-143.84;33.78;44818.66;5113892;28;20497;-76
2022/08/04 07:10:06;;;;;;;5.60;2.57;;;;;;;-143.84;34.61;44805.34;5112829;28;20865;-75
2022/08/04 07:12:34;;;;;;;4.57;2.97;;;;;;;-143.84;33.98;44820.56;5112286;28;20450;-75
2022/08/04 07:15:03;;;;;;;2.93;2.73;;;;;;;-143.84;34.01;44822.47;5112338;28;20983;-75
2022/08/04 07:17:31;;;;;;;3.20;2.90;;;;;;;-143.84;34.27;44801.53;5112648;28;20434;-75
2022/08/04 07:19:58;;;;;;;4.00;3.07;;;;;;;-143.84;34.04;44812.97;5112382;28;21003;-75
2022/08/04 07:22:26;;;;;;;10.43;2.77;;;;;;;-143.84;33.66;44765.34;5112204;28;20447;-75
2022/08/04 07:24:56;;;;;;;2.80;2.57;;;;;;;-143.84;33.52;44805.34;5111983;28;20415;-75
2022/08/04 07:27:26;;;;;;;3.60;3.30;;;;;;;-143.84;33.34;44830.09;5112364;28;21031;-75
2022/08/04 07:29:53;;;;;;;9.73;2.73;;;;;;;-143.84;33.87;44790.13;5112932;28;20847;-75
2022/08/04 07:32:21;;;;;;;3.53;3.23;;;;;;;-143.84;34.11;44797.72;5112647;28;20924;-75
2022/08/04 07:34:51;;;;;;;7.17;2.90;;;;;;;-143.84;34.82;44788.22;5112539;28;20982;-75
2022/08/04 07:37:19;;;;;;;4.00;2.70;;;;;;;-143.84;33.91;44784.41;5111821;28;20499;-75
2022/08/04 07:39:46;;;;;;;3.30;3.00;;;;;;;-143.84;34.18;44820.56;5111876;28;20490;-75
2022/08/04 07:42:14;;;;;;;5.70;3.07;;;;;;;-143.84;33.84;44790.13;5112169;28;20438;-75
2022/08/04 07:44:46;;;;;;;3.27;2.97;;;;;;;-143.84;34.12;44763.47;5112494;28;20443;-75
2022/08/04 07:47:14;;;;;;;6.07;3.00;;;;;;;-143.84;33.51;44797.72;5112285;28;20448;-75
2022/08/04 07:49:42;;;;;;;6.33;3.20;;;;;;;-143.84;33.98;44797.72;5112442;28;20556;-75
2022/08/04 07:52:09;;;;;;;3.73;2.73;;;;;;;-143.84;33.63;44782.50;5112317;28;20519;-75
2022/08/04 07:54:38;;;;;;;5.97;2.97;;;;;;;-143.84;33.89;44801.53;5112283;28;20458;-75
2022/08/04 07:57:05;;;;;;;15.93;9.77;;;;;;;-143.84;33.51;44795.81;5111329;28;20672;-77
2022/08/04 07:59:33;;;;;;;9.03;5.50;;;;;;;-143.84;34.05;44797.72;5112604;28;20427;-75
2022/08/04 08:02:02;;;;;;;3.83;3.23;;;;;;;-143.84;34.16;44788.22;5099735;28;20444;-76
2022/08/04 08:04:31;;;;;;;3.23;2.97;;;;;;;-143.84;33.73;44755.84;5091689;28;20956;-77
2022/08/04 08:06:58;;;;;;;5.30;3.03;;;;;;;-143.84;33.68;44793.91;5092778;28;20463;-77
2022/08/04 08:09:26;;;;;;;5.43;3.20;;;;;;;-143.84;33.18;44746.31;5092477;28;20520;-76
2022/08/04 08:11:54;;;;;;;4.90;3.43;;;;;;;-143.84;33.45;44767.25;5091422;28;21026;-76
2022/08/04 08:14:22;;;;;;;8.17;3.37;;;;;;;-143.84;34.05;44797.72;5092291;28;20777;-80
2022/08/04 08:16:50;;;;;;;4.37;3.23;;;;;;;-143.84;33.86;44782.50;5093017;28;20444;-77
2022/08/04 08:19:18;;;;;;;53.90;40.33;;;;;;;-143.84;33.85;44799.63;5091903;28;21186;-79
2022/08/04 08:21:49;;;;;;;7.10;6.13;;;;;;;-143.84;33.59;44788.22;5091281;28;20479;-73
2022/08/04 08:24:16;;;;;;;3.40;3.10;;;;;;;-143.84;34.40;44790.13;5090740;28;20801;-73
2022/08/04 08:26:44;;;;;;;6.70;3.50;;;;;;;-143.84;33.96;44809.16;5090844;28;21010;-73
2022/08/04 08:29:11;;;;;;;9.67;3.30;;;;;;;-143.84;33.90;44795.81;5090848;28;20801;-73
2022/08/04 08:31:39;;;;;;;3.00;2.90;;;;;;;-143.84;34.31;44828.19;5090682;28;20532;-73
2022/08/04 08:34:06;;;;;;;5.03;3.20;;;;;;;-143.84;34.70;44832.00;5090876;28;20435;-73
2022/08/04 08:36:42;;;;;;;3.20;2.90;;;;;;;-143.84;35.57;44803.44;5090641;28;20463;-71
2022/08/04 08:39:16;;;;;;;10.73;9.60;;;;;;;-143.84;34.43;44835.81;5091249;28;20448;-75
2022/08/04 08:42:19;;;;;;;4.70;3.97;;;;;;;-143.84;33.77;44809.16;5091769;28;20548;-76
2022/08/04 08:45:27;;;;;;;9.03;6.63;;;;;;;-143.84;34.15;44828.19;5090582;28;20441;-74
2022/08/04 08:48:14;;;;;;;4.37;3.80;;;;;;;-143.84;34.74;44805.34;5090577;28;20447;-74
2022/08/04 08:51:02;;;;;;;3.50;3.20;;;;;;;-143.84;34.96;44818.66;5090788;28;20493;-74
2022/08/04 08:53:57;;;;;;;5.67;3.00;;;;;;;-143.84;34.71;44784.41;5090338;28;20444;-74
2022/08/04 08:56:37;;;;;;;8.30;3.50;;;;;;;-143.84;33.54;44797.72;5090305;28;20451;-74
2022/08/04 08:59:25;;;;;;;4.47;3.03;;;;;;;-143.84;33.64;44826.28;5090055;28;21016;-74
2022/08/04 09:02:07;;;;;;;3.20;2.87;;;;;;;-143.84;34.58;44809.16;5090048;28;20486;-74
2022/08/04 09:04:59;;;;;;;8.80;3.20;;;;;;;-143.84;34.20;44820.56;5090396;28;20466;-72
2022/08/04 09:07:39;;;;;;;4.27;3.70;;;;;;;-143.84;34.52;44862.47;5089955;28;20839;-71
2022/08/04 09:10:16;;;;;;;5.67;3.13;;;;;;;-143.84;35.23;44860.56;5090233;28;20440;-71
2022/08/04 09:12:50;;;;;;;4.00;3.20;;;;;;;-143.84;34.86;44799.63;5091312;28;20447;-70
2022/08/04 09:15:27;;;;;;;16.60;15.00;;;;;;;-143.84;35.24;44832.00;5090940;28;20470;-72
2022/08/04 09:18:00;;;;;;;3.90;3.50;;;;;;;-143.84;34.59;44818.66;5090623;28;20428;-70
2022/08/04 09:20:34;;;;;;;3.20;3.00;;;;;;;-143.84;35.30;44793.91;5090765;28;20484;-71
2022/08/04 09:23:12;;;;;;;6.47;3.00;;;;;;;-143.84;33.48;44793.91;5091155;28;20497;-71
2022/08/04 09:25:47;;;;;;;7.50;3.20;;;;;;;-143.84;33.61;44830.09;5091257;28;20436;-71
2022/08/04 09:28:21;;;;;;;6.17;3.37;;;;;;;-143.84;33.64;44771.06;5091375;28;20435;-71
2022/08/04 09:30:56;;;;;;;17.00;14.87;;;;;;;-143.84;34.45;44822.47;5090584;28;20937;-72
2022/08/04 09:33:31;;;;;;;24.03;21.10;;;;;;;-143.84;34.66;44833.91;5090544;28;20967;-69
2022/08/04 09:36:05;;;;;;;4.70;3.80;;;;;;;-143.84;34.36;44822.47;5091110;28;21027;-69
2022/08/04 09:38:41;;;;;;;5.10;3.13;;;;;;;-143.84;34.49;44812.97;5091137;28;20435;-69
2022/08/04 09:41:24;;;;;;;8.10;3.33;;;;;;;-143.84;34.43;44811.06;5090964;28;20471;-69
2022/08/04 09:44:03;;;;;;;3.50;3.20;;;;;;;-143.84;34.04;44793.91;5090471;28;20444;-69
2022/08/04 09:46:37;;;;;;;3.57;2.93;;;;;;;-143.84;32.95;44782.50;5090744;28;20505;-69
2022/08/04 09:49:13;;;;;;;3.43;3.00;;;;;;;-143.84;33.22;44769.16;5090647;28;20494;-69
2022/08/04 09:51:55;;;;;;;3.53;3.23;;;;;;;-143.84;33.71;44772.97;5090922;28;20446;-69
2022/08/04 09:54:29;;;;;;;3.43;3.13;;;;;;;-143.84;34.28;44793.91;5091275;28;20442;-69
2022/08/04 09:57:18;;;;;;;3.60;3.30;;;;;;;-143.84;35.99;44820.56;5090761;28;21033;-69
2022/08/04 09:59:57;;;;;;;6.03;3.10;;;;;;;-143.84;37.17;44801.53;5091449;28;20440;-69
2022/08/04 10:02:26;;;;;;;16.00;12.27;;;;;;;-143.84;37.78;44845.31;5105569;28;21074;-68
2022/08/04 10:04:55;;;;;;;27.70;21.13;;;;;;;-143.84;38.98;44792.00;5109388;28;20945;-68
2022/08/04 10:07:40;;;;;;;25.10;16.90;;;;;;;-143.84;37.58;44820.56;5110271;28;20438;-69
2022/08/04 10:10:19;;;;;;;5.40;4.60;;;;;;;-143.84;38.53;44835.81;5110013;28;20484;-69
2022/08/04 10:13:14;;;;;;;8.00;3.67;;;;;;;-143.84;39.96;44835.81;5109418;28;20472;-69
2022/08/04 10:15:52;;;;;;;3.77;3.47;;;;;;;-143.84;40.07;44843.44;5106347;28;20959;-69
2022/08/04 10:18:30;;;;;;;4.40;4.00;;;;;;;-143.84;41.13;44837.72;5108772;28;20856;-69
2022/08/04 10:21:04;;;;;;;6.83;3.50;;;;;;;-143.84;41.89;44854.84;5109224;28;20482;-69
2022/08/04 10:23:47;;;;;;;11.03;4.03;;;;;;;-143.84;42.74;44875.78;5109779;28;20438;-69
2022/08/04 10:26:29;;;;;;;4.80;3.30;;;;;;;-143.84;43.10;44868.19;5109423;28;20943;-69
2022/08/04 10:29:05;;;;;;;27.40;8.40;;;;;;;-143.84;45.61;44870.09;5109484;28;20434;-69
2022/08/04 10:31:36;;;;;;;19.00;5.10;;;;;;;-143.84;44.41;44866.28;5109786;28;20450;-69
2022/08/04 10:34:10;;;;;;;4.67;4.03;;;;;;;-143.84;43.47;44858.66;5109460;28;20423;-69
2022/08/04 10:36:53;;;;;;;8.53;4.17;;;;;;;-143.84;44.26;44864.38;5109323;28;20440;-69
2022/08/04 10:39:29;;;;;;;7.30;4.13;;;;;;;-143.84;44.85;44871.97;5109483;28;20435;-69
2022/08/04 10:42:10;;;;;;;4.90;3.97;;;;;;;-143.84;45.42;44887.22;5109548;28;20551;-69
2022/08/04 10:44:52;;;;;;;3.73;3.50;;;;;;;-143.84;44.96;44866.28;5109194;28;20431;-69
2022/08/04 10:47:24;;;;;;;8.83;5.40;;;;;;;-143.84;45.72;44854.84;5109358;28;20800;-69
2022/08/04 10:49:57;;;;;;;8.67;4.50;;;;;;;-143.84;46.06;44870.09;5109419;28;20439;-69
2022/08/04 10:52:32;;;;;;;9.27;3.70;;;;;;;-143.84;46.31;44851.03;5109355;28;20500;-70
2022/08/04 10:55:07;;;;;;;9.60;4.70;;;;;;;-143.84;45.15;44896.75;5109837;28;20438;-71
2022/08/04 10:57:39;;;;;;;9.67;5.07;;;;;;;-143.84;46.65;44858.66;5109468;28;20995;-71
2022/08/04 11:00:11;;;;;;;5.30;4.90;;;;;;;-143.84;46.01;44843.44;5109540;28;20444;-71
2022/08/04 11:02:45;;;;;;;4.80;4.37;;;;;;;-143.84;47.15;44866.28;5091408;28;20468;-71
2022/08/04 11:05:23;;;;;;;6.40;4.13;;;;;;;-143.84;45.67;44845.31;5089183;28;20447;-71
2022/08/04 11:07:54;;;;;;;5.07;4.20;;;;;;;-143.84;46.34;44864.38;5089249;28;20436;-71
2022/08/04 11:10:23;;;;;;;7.13;4.10;;;;;;;-143.84;46.90;44875.78;5089535;28;20892;-71
2022/08/04 11:13:00;;;;;;;15.37;4.40;;;;;;;-143.84;47.16;44866.28;5089290;28;20814;-71
2022/08/04 11:15:38;;;;;;;9.87;3.43;;;;;;;-143.84;46.78;44854.84;5089277;28;20471;-71
2022/08/04 11:18:10;;;;;;;5.07;4.57;;;;;;;-143.84;47.38;44894.84;5089070;28;20443;-71
2022/08/04 11:20:45;;;;;;;5.90;4.40;;;;;;;-143.84;47.88;44875.78;5088712;28;20444;-71
2022/08/04 11:23:14;;;;;;;14.13;3.97;;;;;;;-143.84;47.71;44856.75;5089435;28;20431;-71
2022/08/04 11:25:52;;;;;;;4.57;4.23;;;;;;;-143.84;46.35;44873.88;5089119;28;20447;-71
2022/08/04 11:28:31;;;;;;;4.50;4.10;;;;;;;-143.84;46.35;44889.13;5088876;28;20436;-71
2022/08/04 11:31:04;;;;;;;9.53;4.43;;;;;;;-143.84;47.57;44892.94;5091557;28;20458;-71
2022/08/04 11:33:40;;;;;;;7.57;4.40;;;;;;;-143.84;47.81;44879.59;5093122;28;20439;-71
2022/08/04 11:36:16;;;;;;;11.07;4.53;;;;;;;-143.84;47.66;44908.16;5092745;28;20439;-71
2022/08/04 11:38:49;;;;;;;6.83;4.20;;;;;;;-143.84;48.17;44845.31;5092738;28;21006;-71
2022/08/04 11:41:22;;;;;;;6.53;4.73;;;;;;;-143.84;49.03;44900.53;5092687;28;20482;-71
2022/08/04 11:43:57;;;;;;;5.17;4.67;;;;;;;-143.84;50.05;44873.88;5092597;28;20442;-71
2022/08/04 11:46:30;;;;;;;7.30;4.87;;;;;;;-143.84;49.29;44866.28;5092553;28;20496;-71
2022/08/04 11:49:03;;;;;;;5.83;5.03;;;;;;;-143.84;49.35;44879.59;5092943;28;20452;-71
2022/08/04 11:51:33;;;;;;;5.33;4.13;;;;;;;-143.84;49.72;44881.50;5092480;28;20456;-71
2022/08/04 11:54:02;;;;;;;5.47;5.07;;;;;;;-143.84;49.37;44879.59;5092459;28;20427;-71
2022/08/04 11:56:30;;;;;;;6.03;3.97;;;;;;;-143.84;48.08;44887.22;5092565;28;20439;-71
2022/08/04 11:59:00;;;;;;;4.10;3.80;;;;;;;-143.84;48.06;44904.34;5092064;28;20479;-71
2022/08/04 12:01:39;;;;;;;6.70;4.20;;;;;;;-143.84;47.14;44896.75;5092367;28;21007;-71